Time;durP1;ratioP1;P1;durP2;ratioP2;P2;SDS_P1;SDS_P2;PMS_P1;PMS_P2;Temp;Humidity;BMP_temperature;BMP_pressure;BME280_temperature;BME280_humidity;BME280_pressure;Samples;Min_cycle;Max_cycle;Signal;HPM_P1;HPM_P2
2023/04/05 00:01:29;;;;;;;;;;;6.40;88.10;;;;;;5089447;28;19923;-67
2023/04/05 00:03:58;;;;;;;;;;;6.40;88.30;;;;;;5090261;28;19912;-67
2023/04/05 00:06:30;;;;;;;;;;;6.40;88.20;;;;;;5090864;28;19916;-67
2023/04/05 00:08:59;;;;;;;;;;;6.30;88.20;;;;;;5090572;28;19912;-67
2023/04/05 00:11:25;;;;;;;;;;;6.40;88.20;;;;;;5090682;28;19908;-67
2023/04/05 00:13:51;;;;;;;;;;;6.30;88.10;;;;;;5099774;28;19918;-67
2023/04/05 00:16:17;;;;;;;;;;;6.30;88.20;;;;;;5109710;28;20276;-67
2023/04/05 00:18:44;;;;;;;;;;;6.30;88.20;;;;;;5110442;28;19919;-67
2023/04/05 00:21:13;;;;;;;;;;;6.20;88.10;;;;;;5110788;28;19919;-67
2023/04/05 00:23:40;;;;;;;;;;;6.20;88.30;;;;;;5110379;28;20512;-67
2023/04/05 00:26:06;;;;;;;;;;;6.20;88.20;;;;;;5103360;28;19919;-67
2023/04/05 00:28:31;;;;;;;;;;;6.20;88.30;;;;;;5110376;28;19908;-67
2023/04/05 00:30:57;;;;;;;;;;;6.20;88.30;;;;;;5110404;28;19913;-67
2023/04/05 00:33:22;;;;;;;;;;;6.20;88.20;;;;;;5110348;28;19914;-67
2023/04/05 00:35:48;;;;;;;;;;;6.10;88.20;;;;;;5108449;28;19916;-67
2023/04/05 00:38:13;;;;;;;;;;;6.20;88.20;;;;;;5109970;28;19919;-67
2023/04/05 00:40:39;;;;;;;;;;;6.10;88.10;;;;;;5109827;28;19965;-67
2023/04/05 00:43:04;;;;;;;;;;;6.10;88.20;;;;;;5109414;28;19919;-67
2023/04/05 00:45:30;;;;;;;;;;;6.10;88.20;;;;;;5109946;28;20708;-67
2023/04/05 00:47:56;;;;;;;;;;;6.10;88.20;;;;;;5110085;28;19915;-67
2023/04/05 00:50:22;;;;;;;;;;;6.00;88.20;;;;;;5109734;28;20424;-67
2023/04/05 00:52:48;;;;;;;;;;;6.00;88.10;;;;;;5109765;28;20370;-67
2023/04/05 00:55:13;;;;;;;;;;;6.00;88.00;;;;;;5109754;28;19912;-67
2023/04/05 00:57:40;;;;;;;;;;;6.00;88.10;;;;;;5110140;28;20558;-67
2023/04/05 01:00:10;;;;;;;;;;;6.00;88.00;;;;;;5110093;27;19923;-67
2023/04/05 01:02:50;;;;;;;;;;;6.00;88.10;;;;;;5109883;28;19965;-67
2023/04/05 01:05:18;;;;;;;;;;;5.90;88.10;;;;;;5110064;28;19908;-67
2023/04/05 01:07:52;;;;;;;;;;;5.90;88.10;;;;;;5109613;28;19940;-67
2023/04/05 01:10:20;;;;;;;;;;;5.90;88.00;;;;;;5109771;28;20775;-67
2023/04/05 01:12:46;;;;;;;;;;;5.90;88.70;;;;;;5109226;28;19915;-67
2023/04/05 01:15:12;;;;;;;;;;;5.90;88.70;;;;;;5109511;28;19912;-67
2023/04/05 01:17:38;;;;;;;;;;;5.80;88.00;;;;;;5109550;28;19951;-67
2023/04/05 01:20:09;;;;;;;;;;;5.80;88.00;;;;;;5108003;28;19970;-67
2023/04/05 01:22:36;;;;;;;;;;;5.80;88.10;;;;;;5103476;28;20681;-67
2023/04/05 01:25:18;;;;;;;;;;;5.80;88.00;;;;;;5088603;28;19970;-67
2023/04/05 01:27:52;;;;;;;;;;;5.80;88.00;;;;;;5108737;28;20521;-67
2023/04/05 01:30:23;;;;;;;;;;;5.70;88.00;;;;;;5108499;28;19923;-67
2023/04/05 01:33:07;;;;;;;;;;;5.70;87.90;;;;;;5108902;28;19923;-67
2023/04/05 01:35:38;;;;;;;;;;;5.70;88.50;;;;;;5109035;28;19999;-67
2023/04/05 01:38:06;;;;;;;;;;;5.70;88.00;;;;;;5109106;28;20377;-67
2023/04/05 01:40:32;;;;;;;;;;;5.60;87.90;;;;;;5108848;28;19911;-67
2023/04/05 01:43:01;;;;;;;;;;;5.60;87.80;;;;;;5108792;28;19916;-67
2023/04/05 01:45:26;;;;;;;;;;;5.60;87.90;;;;;;5108429;27;19919;-67
2023/04/05 01:47:51;;;;;;;;;;;5.60;88.00;;;;;;5109135;28;19915;-67
2023/04/05 01:50:17;;;;;;;;;;;5.60;88.00;;;;;;5107531;28;20233;-67
2023/04/05 01:52:43;;;;;;;;;;;5.50;87.80;;;;;;5100400;28;19912;-67
2023/04/05 01:55:08;;;;;;;;;;;5.50;88.00;;;;;;5088490;28;20368;-67
2023/04/05 01:57:34;;;;;;;;;;;5.50;87.80;;;;;;5088449;28;19912;-67
2023/04/05 02:00:00;;;;;;;;;;;5.50;87.80;;;;;;5088386;28;19920;-67
2023/04/05 02:02:26;;;;;;;;;;;5.50;87.90;;;;;;5088032;28;20277;-67
2023/04/05 02:04:51;;;;;;;;;;;5.50;87.70;;;;;;5088384;28;19912;-67
2023/04/05 02:07:17;;;;;;;;;;;5.50;87.70;;;;;;5088023;28;19923;-67
2023/04/05 02:09:42;;;;;;;;;;;5.50;87.70;;;;;;5088748;28;19912;-67
2023/04/05 02:12:08;;;;;;;;;;;5.40;87.70;;;;;;5087965;28;19962;-67
2023/04/05 02:14:34;;;;;;;;;;;5.40;88.30;;;;;;5105184;28;19916;-67
2023/04/05 02:17:02;;;;;;;;;;;5.40;88.00;;;;;;5108225;28;20002;-66
2023/04/05 02:19:30;;;;;;;;;;;5.40;87.80;;;;;;5108045;28;19920;-67
2023/04/05 02:21:56;;;;;;;;;;;5.30;87.70;;;;;;5107789;28;19912;-67
2023/04/05 02:24:21;;;;;;;;;;;5.30;87.70;;;;;;5108532;28;20323;-67
2023/04/05 02:26:47;;;;;;;;;;;5.30;87.60;;;;;;5107229;28;19927;-67
2023/04/05 02:29:12;;;;;;;;;;;5.30;87.60;;;;;;5108263;28;19908;-67
2023/04/05 02:31:38;;;;;;;;;;;5.30;87.60;;;;;;5106673;28;19918;-66
2023/04/05 02:34:04;;;;;;;;;;;5.30;87.70;;;;;;5107064;28;19915;-67
2023/04/05 02:36:30;;;;;;;;;;;5.20;87.60;;;;;;5107075;28;20042;-66
2023/04/05 02:38:55;;;;;;;;;;;5.30;87.60;;;;;;5108445;28;20035;-67
2023/04/05 02:41:22;;;;;;;;;;;5.20;87.60;;;;;;5107665;28;19971;-67
2023/04/05 02:43:48;;;;;;;;;;;5.20;87.50;;;;;;5107888;28;19916;-67
2023/04/05 02:46:14;;;;;;;;;;;5.20;87.50;;;;;;5108345;28;20558;-67
2023/04/05 02:48:40;;;;;;;;;;;5.20;87.60;;;;;;5106391;28;19985;-67
2023/04/05 02:51:05;;;;;;;;;;;5.20;87.60;;;;;;5108430;28;19968;-66
2023/04/05 02:53:31;;;;;;;;;;;5.10;87.50;;;;;;5107763;28;19916;-67
2023/04/05 02:55:56;;;;;;;;;;;5.10;88.10;;;;;;5107989;28;19911;-66
2023/04/05 02:58:23;;;;;;;;;;;5.10;87.60;;;;;;5106684;28;19919;-67
2023/04/05 03:00:50;;;;;;;;;;;5.10;87.60;;;;;;5107527;28;20016;-66
2023/04/05 03:03:16;;;;;;;;;;;5.10;87.70;;;;;;5107652;28;19915;-66
2023/04/05 03:05:42;;;;;;;;;;;5.10;87.60;;;;;;5106072;28;20337;-66
2023/04/05 03:08:07;;;;;;;;;;;5.10;87.60;;;;;;5107827;28;19911;-67
2023/04/05 03:10:35;;;;;;;;;;;5.10;87.60;;;;;;5107797;28;19955;-66
2023/04/05 03:13:01;;;;;;;;;;;5.00;87.60;;;;;;5107713;28;19916;-66
2023/04/05 03:15:27;;;;;;;;;;;5.00;87.60;;;;;;5107843;28;19912;-67
2023/04/05 03:17:52;;;;;;;;;;;5.00;87.60;;;;;;5107683;28;19912;-66
2023/04/05 03:20:18;;;;;;;;;;;5.00;87.70;;;;;;5107777;28;19923;-67
2023/04/05 03:22:43;;;;;;;;;;;5.00;87.60;;;;;;5100568;28;20280;-66
2023/04/05 03:25:09;;;;;;;;;;;5.00;87.60;;;;;;5086980;28;19908;-67
2023/04/05 03:27:35;;;;;;;;;;;5.00;87.60;;;;;;5106083;28;19916;-67
2023/04/05 03:30:01;;;;;;;;;;;4.90;87.60;;;;;;5107452;28;19916;-66
2023/04/05 03:32:26;;;;;;;;;;;4.90;87.60;;;;;;5107570;28;20402;-66
2023/04/05 03:34:52;;;;;;;;;;;4.90;87.60;;;;;;5107704;28;20015;-67
2023/04/05 03:37:17;;;;;;;;;;;4.90;87.60;;;;;;5107207;28;20393;-67
2023/04/05 03:39:43;;;;;;;;;;;4.90;87.60;;;;;;5107586;28;19915;-66
2023/04/05 03:42:08;;;;;;;;;;;4.90;87.60;;;;;;5107241;28;19912;-66
2023/04/05 03:44:34;;;;;;;;;;;4.80;87.60;;;;;;5106489;28;20325;-66
2023/04/05 03:47:00;;;;;;;;;;;4.80;87.60;;;;;;5107329;28;19915;-66
2023/04/05 03:49:25;;;;;;;;;;;4.80;87.60;;;;;;5107609;28;19934;-66
2023/04/05 03:51:51;;;;;;;;;;;4.80;87.60;;;;;;5106438;28;19908;-67
2023/04/05 03:54:16;;;;;;;;;;;4.80;87.60;;;;;;5091160;28;19912;-67
2023/04/05 03:56:41;;;;;;;;;;;4.80;87.60;;;;;;5090645;28;19912;-67
2023/04/05 03:59:07;;;;;;;;;;;4.80;87.60;;;;;;5090621;28;19961;-67
2023/04/05 04:01:33;;;;;;;;;;;4.80;87.70;;;;;;5090760;28;20357;-67
2023/04/05 04:03:59;;;;;;;;;;;4.70;87.60;;;;;;5089740;28;19922;-67
2023/04/05 04:06:25;;;;;;;;;;;4.70;87.60;;;;;;5090488;28;19912;-66
2023/04/05 04:08:51;;;;;;;;;;;4.70;87.70;;;;;;5090355;28;19908;-66
2023/04/05 04:11:17;;;;;;;;;;;4.70;87.70;;;;;;5090362;28;19965;-66
2023/04/05 04:13:42;;;;;;;;;;;4.70;87.70;;;;;;5100000;28;19911;-66
2023/04/05 04:16:08;;;;;;;;;;;4.70;87.60;;;;;;5110940;28;19911;-66
2023/04/05 04:18:33;;;;;;;;;;;4.70;87.70;;;;;;5110775;28;20330;-66
2023/04/05 04:21:05;;;;;;;;;;;4.70;87.70;;;;;;5110720;28;19920;-67
2023/04/05 04:23:31;;;;;;;;;;;4.60;87.70;;;;;;5102533;27;19911;-67
2023/04/05 04:25:57;;;;;;;;;;;4.60;87.70;;;;;;5103709;28;19912;-66
2023/04/05 04:28:23;;;;;;;;;;;4.60;87.70;;;;;;5110254;28;19920;-66
2023/04/05 04:30:50;;;;;;;;;;;4.60;87.80;;;;;;5108912;28;19912;-66
2023/04/05 04:33:16;;;;;;;;;;;4.60;87.80;;;;;;5110174;28;19961;-66
2023/04/05 04:35:45;;;;;;;;;;;4.50;87.70;;;;;;5110444;28;19908;-66
2023/04/05 04:38:17;;;;;;;;;;;4.60;87.70;;;;;;5110196;28;19915;-66
2023/04/05 04:40:45;;;;;;;;;;;4.50;87.70;;;;;;5109811;28;20343;-67
2023/04/05 04:43:17;;;;;;;;;;;4.50;87.70;;;;;;5109684;28;19965;-66
2023/04/05 04:45:45;;;;;;;;;;;4.50;88.40;;;;;;5109854;28;20503;-66
2023/04/05 04:48:12;;;;;;;;;;;4.50;87.90;;;;;;5108785;28;20368;-67
2023/04/05 04:50:38;;;;;;;;;;;4.50;87.80;;;;;;5110064;28;19923;-67
2023/04/05 04:53:04;;;;;;;;;;;4.50;87.80;;;;;;5099925;28;20273;-67
2023/04/05 04:55:32;;;;;;;;;;;4.50;87.80;;;;;;5089313;28;19912;-67
2023/04/05 04:57:58;;;;;;;;;;;4.50;87.80;;;;;;5097359;27;19911;-66
2023/04/05 05:00:23;;;;;;;;;;;4.40;87.80;;;;;;5095057;27;19938;-66
2023/04/05 05:02:50;;;;;;;;;;;4.40;87.80;;;;;;5094148;28;19994;-67
2023/04/05 05:05:15;;;;;;;;;;;4.40;87.80;;;;;;5107668;28;19919;-66
2023/04/05 05:07:41;;;;;;;;;;;4.40;87.70;;;;;;5105771;28;19912;-67
2023/04/05 05:10:07;;;;;;;;;;;4.40;87.80;;;;;;5088695;28;19915;-67
2023/04/05 05:12:33;;;;;;;;;;;4.40;87.90;;;;;;5088642;28;20352;-66
2023/04/05 05:14:59;;;;;;;;;;;4.40;87.80;;;;;;5108615;28;19912;-67
2023/04/05 05:17:24;;;;;;;;;;;4.40;87.90;;;;;;5108345;28;20790;-67
2023/04/05 05:19:50;;;;;;;;;;;4.40;87.90;;;;;;5108665;28;19920;-67
2023/04/05 05:22:16;;;;;;;;;;;4.30;87.90;;;;;;5107730;28;19908;-67
2023/04/05 05:24:42;;;;;;;;;;;4.30;87.90;;;;;;5106499;28;19943;-66
2023/04/05 05:27:08;;;;;;;;;;;4.30;87.90;;;;;;5104041;28;19912;-67
2023/04/05 05:29:33;;;;;;;;;;;4.30;87.90;;;;;;5109079;28;19919;-66
2023/04/05 05:31:59;;;;;;;;;;;4.30;87.90;;;;;;5106906;28;19908;-67
2023/04/05 05:34:25;;;;;;;;;;;4.30;88.00;;;;;;5108925;28;19916;-67
2023/04/05 05:36:52;;;;;;;;;;;4.30;87.90;;;;;;5108730;28;20302;-66
2023/04/05 05:39:18;;;;;;;;;;;4.30;87.90;;;;;;5108444;28;19912;-66
2023/04/05 05:41:43;;;;;;;;;;;4.30;88.00;;;;;;5108378;28;20373;-66
2023/04/05 05:44:09;;;;;;;;;;;4.30;87.90;;;;;;5107405;28;19915;-67
2023/04/05 05:46:34;;;;;;;;;;;4.30;88.00;;;;;;5107493;28;20437;-66
2023/04/05 05:49:00;;;;;;;;;;;4.30;88.00;;;;;;5108788;28;19965;-66
2023/04/05 05:51:26;;;;;;;;;;;4.20;87.90;;;;;;5108721;28;20387;-66
2023/04/05 05:53:51;;;;;;;;;;;4.20;88.00;;;;;;5091864;28;20015;-66
2023/04/05 05:56:17;;;;;;;;;;;4.20;87.90;;;;;;5088407;28;19919;-66
2023/04/05 05:58:42;;;;;;;;;;;4.20;87.90;;;;;;5088023;28;19908;-67
2023/04/05 06:01:10;;;;;;;;;;;4.20;88.00;;;;;;5103780;28;19911;-66
2023/04/05 06:03:36;;;;;;;;;;;4.20;87.90;;;;;;5106484;28;19911;-67
2023/04/05 06:06:04;;;;;;;;;;;4.20;88.10;;;;;;5108797;28;20375;-67
2023/04/05 06:08:30;;;;;;;;;;;4.30;88.00;;;;;;5087981;28;19915;-66
2023/04/05 06:10:56;;;;;;;;;;;4.30;88.10;;;;;;5137386;27;19912;-66
2023/04/05 06:13:21;;;;;;;;;;;4.20;88.00;;;;;;5106507;28;19919;-66
2023/04/05 06:15:47;;;;;;;;;;;4.30;88.10;;;;;;5107436;28;19920;-66
2023/04/05 06:18:13;;;;;;;;;;;4.20;88.10;;;;;;5108310;28;20368;-67
2023/04/05 06:20:39;;;;;;;;;;;4.30;88.20;;;;;;5107973;28;19947;-66
2023/04/05 06:23:05;;;;;;;;;;;4.20;88.20;;;;;;5107726;28;19940;-66
2023/04/05 06:25:31;;;;;;;;;;;4.30;88.20;;;;;;5108101;28;19965;-66
2023/04/05 06:27:56;;;;;;;;;;;4.30;88.10;;;;;;5107630;28;19923;-66
2023/04/05 06:30:22;;;;;;;;;;;4.30;88.20;;;;;;5107634;28;19991;-66
2023/04/05 06:32:53;;;;;;;;;;;4.30;88.30;;;;;;5107531;28;19958;-66
2023/04/05 06:35:21;;;;;;;;;;;4.30;88.20;;;;;;5108114;28;19995;-66
2023/04/05 06:37:47;;;;;;;;;;;4.40;88.20;;;;;;5107770;28;19923;-66
2023/04/05 06:40:13;;;;;;;;;;;4.30;88.20;;;;;;5108188;28;19912;-67
2023/04/05 06:42:39;;;;;;;;;;;4.40;88.20;;;;;;5107914;28;19923;-66
2023/04/05 06:45:04;;;;;;;;;;;4.40;88.20;;;;;;5107996;28;19911;-66
2023/04/05 06:47:37;;;;;;;;;;;4.40;88.20;;;;;;5107802;28;19931;-66
2023/04/05 06:50:03;;;;;;;;;;;4.40;88.20;;;;;;5107854;28;19916;-67
2023/04/05 06:52:28;;;;;;;;;;;4.40;88.30;;;;;;5107467;28;19912;-67
2023/04/05 06:54:55;;;;;;;;;;;4.50;88.30;;;;;;5107712;28;19915;-66
2023/04/05 06:57:20;;;;;;;;;;;4.50;88.30;;;;;;5107655;28;19912;-66
2023/04/05 06:59:46;;;;;;;;;;;4.50;88.30;;;;;;5107677;28;20376;-66
2023/04/05 07:02:12;;;;;;;;;;;4.50;88.30;;;;;;5106004;28;19912;-66
2023/04/05 07:04:38;;;;;;;;;;;4.60;88.40;;;;;;5108351;28;20330;-66
2023/04/05 07:07:06;;;;;;;;;;;4.60;88.10;;;;;;5106521;28;19916;-66
2023/04/05 07:09:32;;;;;;;;;;;4.70;88.00;;;;;;5108181;28;19919;-66
2023/04/05 07:11:58;;;;;;;;;;;4.80;88.40;;;;;;5106254;28;20098;-66
2023/04/05 07:14:23;;;;;;;;;;;4.80;87.70;;;;;;5107869;28;20002;-66
2023/04/05 07:16:50;;;;;;;;;;;4.80;87.70;;;;;;5107761;28;19912;-66
2023/04/05 07:19:16;;;;;;;;;;;4.90;87.70;;;;;;5107844;28;19915;-67
2023/04/05 07:21:41;;;;;;;;;;;4.90;87.70;;;;;;5107589;28;19915;-66
2023/04/05 07:24:07;;;;;;;;;;;4.90;87.80;;;;;;5088853;28;19923;-67
2023/04/05 07:26:34;;;;;;;;;;;4.90;87.80;;;;;;5089170;28;19919;-67
2023/04/05 07:29:00;;;;;;;;;;;4.90;88.00;;;;;;5091275;28;19916;-66
2023/04/05 07:31:26;;;;;;;;;;;4.90;88.00;;;;;;5099376;28;19919;-66
2023/04/05 07:33:52;;;;;;;;;;;5.00;88.10;;;;;;5109929;28;19911;-66
2023/04/05 07:36:17;;;;;;;;;;;5.00;88.00;;;;;;5111669;28;19939;-66
2023/04/05 07:38:43;;;;;;;;;;;5.10;88.00;;;;;;5111508;27;20348;-66
2023/04/05 07:41:10;;;;;;;;;;;5.20;88.00;;;;;;5111588;28;19922;-66
2023/04/05 07:43:36;;;;;;;;;;;5.20;87.90;;;;;;5110788;28;19969;-66
2023/04/05 07:46:02;;;;;;;;;;;5.30;88.00;;;;;;5111398;28;19908;-66
2023/04/05 07:48:28;;;;;;;;;;;5.40;87.80;;;;;;5109515;28;20348;-66
2023/04/05 07:50:54;;;;;;;;;;;5.50;87.70;;;;;;5111232;28;19912;-67
2023/04/05 07:53:19;;;;;;;;;;;5.60;87.40;;;;;;5098823;28;19909;-67
2023/04/05 07:55:45;;;;;;;;;;;5.70;87.80;;;;;;5090661;28;20428;-66
2023/04/05 07:58:11;;;;;;;;;;;5.70;87.00;;;;;;5090550;28;19962;-67
2023/04/05 08:00:36;;;;;;;;;;;5.80;86.70;;;;;;5106250;28;19915;-66
2023/04/05 08:03:03;;;;;;;;;;;5.90;86.60;;;;;;5110692;28;19912;-66
2023/04/05 08:05:29;;;;;;;;;;;5.90;86.60;;;;;;5110890;28;19912;-67
2023/04/05 08:07:56;;;;;;;;;;;6.00;86.20;;;;;;5109140;28;19923;-66
2023/04/05 08:10:22;;;;;;;;;;;6.10;86.10;;;;;;5110848;28;19980;-67
2023/04/05 08:12:48;;;;;;;;;;;6.20;86.10;;;;;;5109938;28;19923;-66
2023/04/05 08:15:14;;;;;;;;;;;6.20;85.90;;;;;;5110741;28;19908;-66
2023/04/05 08:17:39;;;;;;;;;;;6.30;86.00;;;;;;5110561;28;19958;-66
2023/04/05 08:20:05;;;;;;;;;;;6.40;85.60;;;;;;5110528;28;19926;-66
2023/04/05 08:22:31;;;;;;;;;;;6.40;85.20;;;;;;5103762;28;19919;-66
2023/04/05 08:24:56;;;;;;;;;;;6.50;85.50;;;;;;5090051;28;19915;-66
2023/04/05 08:27:22;;;;;;;;;;;6.50;85.40;;;;;;5089973;28;19922;-66
2023/04/05 08:29:47;;;;;;;;;;;6.60;85.20;;;;;;5090056;28;20292;-66
2023/04/05 08:32:13;;;;;;;;;;;6.60;85.30;;;;;;5105788;28;20441;-66
2023/04/05 08:34:38;;;;;;;;;;;6.70;85.30;;;;;;5110462;28;19918;-67
2023/04/05 08:37:04;;;;;;;;;;;6.70;84.60;;;;;;5109796;28;19951;-66
2023/04/05 08:39:30;;;;;;;;;;;6.70;84.40;;;;;;5108381;28;20604;-67
2023/04/05 08:42:05;;;;;;;;;;;6.70;84.30;;;;;;5109485;28;19952;-66
2023/04/05 08:44:30;;;;;;;;;;;6.80;84.20;;;;;;5109721;28;19919;-66
2023/04/05 08:46:57;;;;;;;;;;;6.80;84.10;;;;;;5109250;28;19915;-66
2023/04/05 08:49:23;;;;;;;;;;;6.80;84.00;;;;;;5109566;28;19923;-67
2023/04/05 08:51:48;;;;;;;;;;;6.80;83.90;;;;;;5108014;28;19919;-67
2023/04/05 08:54:14;;;;;;;;;;;6.90;83.90;;;;;;5109286;28;19915;-66
2023/04/05 08:56:41;;;;;;;;;;;6.90;84.10;;;;;;5109751;28;20599;-67
2023/04/05 08:59:08;;;;;;;;;;;6.90;83.80;;;;;;5109677;28;19912;-66
2023/04/05 09:01:38;;;;;;;;;;;7.00;83.80;;;;;;5109359;28;19911;-66
2023/04/05 09:04:10;;;;;;;;;;;7.00;83.60;;;;;;5109750;28;20476;-67
2023/04/05 09:06:36;;;;;;;;;;;7.00;83.30;;;;;;5109693;28;19908;-67
2023/04/05 09:09:04;;;;;;;;;;;7.10;83.40;;;;;;5109996;28;19919;-66
2023/04/05 09:11:31;;;;;;;;;;;7.10;83.30;;;;;;5109686;28;19920;-67
2023/04/05 09:13:57;;;;;;;;;;;7.10;83.40;;;;;;5107815;28;19912;-67
2023/04/05 09:16:23;;;;;;;;;;;7.10;83.30;;;;;;5109623;28;20513;-68
2023/04/05 09:18:49;;;;;;;;;;;7.10;83.50;;;;;;5107838;28;20269;-67
2023/04/05 09:21:16;;;;;;;;;;;7.10;83.40;;;;;;5109652;28;19919;-67
2023/04/05 09:23:50;;;;;;;;;;;7.10;83.50;;;;;;5094064;28;19912;-67
2023/04/05 09:26:20;;;;;;;;;;;7.20;83.40;;;;;;5089405;28;20458;-67
2023/04/05 09:28:46;;;;;;;;;;;7.20;83.30;;;;;;5089013;28;19959;-67
2023/04/05 09:31:30;;;;;;;;;;;7.20;83.20;;;;;;5096575;28;19954;-67
2023/04/05 09:34:02;;;;;;;;;;;7.20;83.20;;;;;;5102760;28;20552;-67
2023/04/05 09:36:27;;;;;;;;;;;7.20;83.30;;;;;;5109338;27;19918;-67
2023/04/05 09:39:02;;;;;;;;;;;7.20;83.50;;;;;;5109133;28;19912;-66
2023/04/05 09:41:28;;;;;;;;;;;7.20;83.80;;;;;;5106986;28;19957;-67
2023/04/05 09:43:53;;;;;;;;;;;7.20;83.50;;;;;;5108706;28;19912;-67
2023/04/05 09:46:32;;;;;;;;;;;7.30;83.70;;;;;;5107855;28;19915;-66
2023/04/05 09:48:58;;;;;;;;;;;7.30;83.30;;;;;;5107630;28;20569;-67
2023/04/05 09:51:30;;;;;;;;;;;7.30;83.20;;;;;;5107285;28;19911;-67
2023/04/05 09:54:09;;;;;;;;;;;7.30;83.00;;;;;;5107564;28;20074;-67
2023/04/05 09:56:35;;;;;;;;;;;7.30;83.30;;;;;;5096782;28;19920;-67
2023/04/05 09:59:04;;;;;;;;;;;7.30;83.10;;;;;;5098359;28;19912;-67
2023/04/05 10:01:30;;;;;;;;;;;7.30;83.50;;;;;;5105963;27;19915;-67
2023/04/05 10:03:57;;;;;;;;;;;7.30;83.40;;;;;;5110550;27;19918;-67
2023/04/05 10:06:22;;;;;;;;;;;7.40;83.30;;;;;;5106430;27;19965;-67
2023/04/05 10:08:48;;;;;;;;;;;7.30;83.40;;;;;;5103905;28;20335;-67
2023/04/05 10:11:16;;;;;;;;;;;7.40;83.50;;;;;;5098322;28;19968;-67
2023/04/05 10:13:42;;;;;;;;;;;7.40;83.30;;;;;;5099377;28;19943;-67
2023/04/05 10:16:10;;;;;;;;;;;7.40;83.10;;;;;;5108371;28;20318;-67
2023/04/05 10:18:41;;;;;;;;;;;7.50;83.30;;;;;;5108182;28;19927;-67
2023/04/05 10:21:09;;;;;;;;;;;7.50;83.30;;;;;;5108503;28;19918;-67
2023/04/05 10:23:36;;;;;;;;;;;7.50;83.50;;;;;;5108057;28;20609;-67
2023/04/05 10:26:35;;;;;;;;;;;7.50;83.30;;;;;;5108390;28;19992;-67
2023/04/05 10:29:06;;;;;;;;;;;7.50;83.20;;;;;;5084549;28;20438;-67
2023/04/05 10:31:37;;;;;;;;;;;7.60;83.50;;;;;;5107439;28;19965;-68
2023/04/05 10:34:05;;;;;;;;;;;7.60;83.50;;;;;;5108039;28;19918;-67
2023/04/05 10:36:41;;;;;;;;;;;7.70;84.00;;;;;;5108104;28;19912;-68
2023/04/05 10:39:19;;;;;;;;;;;7.70;83.90;;;;;;5106844;28;19915;-68
2023/04/05 10:41:51;;;;;;;;;;;7.80;83.90;;;;;;5107879;28;19965;-68
2023/04/05 10:44:17;;;;;;;;;;;7.90;83.80;;;;;;5108066;28;20600;-67
2023/04/05 10:46:44;;;;;;;;;;;7.90;83.90;;;;;;5107986;28;19912;-67
2023/04/05 10:49:18;;;;;;;;;;;8.00;83.80;;;;;;5108167;28;20321;-67
2023/04/05 10:51:44;;;;;;;;;;;8.10;83.80;;;;;;5107332;28;19915;-67
2023/04/05 10:54:10;;;;;;;;;;;8.10;83.60;;;;;;5106320;28;20010;-68
2023/04/05 10:56:36;;;;;;;;;;;8.20;83.10;;;;;;5107455;28;19991;-67
2023/04/05 10:59:02;;;;;;;;;;;8.30;83.50;;;;;;5102347;28;19987;-68
2023/04/05 11:01:28;;;;;;;;;;;8.50;83.20;;;;;;5094887;28;19985;-68
2023/04/05 11:03:54;;;;;;;;;;;8.60;83.60;;;;;;5109257;28;19977;-67
2023/04/05 11:06:20;;;;;;;;;;;8.70;83.40;;;;;;5112092;28;19912;-68
2023/04/05 11:08:46;;;;;;;;;;;8.80;83.30;;;;;;5104871;28;19920;-68
2023/04/05 11:11:15;;;;;;;;;;;8.90;83.10;;;;;;5111437;27;19908;-67
2023/04/05 11:13:47;;;;;;;;;;;8.90;82.70;;;;;;5109561;28;19919;-67
2023/04/05 11:16:13;;;;;;;;;;;9.00;82.80;;;;;;5112092;28;20644;-68
2023/04/05 11:18:43;;;;;;;;;;;9.20;82.90;;;;;;5111764;28;19958;-67
2023/04/05 11:21:08;;;;;;;;;;;9.30;82.50;;;;;;5111857;28;19920;-67
2023/04/05 11:23:54;;;;;;;;;;;9.40;82.10;;;;;;5110126;28;19907;-67
2023/04/05 11:26:19;;;;;;;;;;;9.50;82.00;;;;;;5111631;28;19908;-67
2023/04/05 11:28:45;;;;;;;;;;;9.60;82.20;;;;;;5111755;28;19920;-67
2023/04/05 11:31:10;;;;;;;;;;;9.70;81.30;;;;;;5102079;28;20003;-68
2023/04/05 11:33:57;;;;;;;;;;;9.70;81.70;;;;;;5091008;28;19912;-67
2023/04/05 11:36:28;;;;;;;;;;;9.80;81.70;;;;;;5093775;28;20285;-68
2023/04/05 11:39:12;;;;;;;;;;;9.90;81.40;;;;;;5111345;28;20328;-67
2023/04/05 11:41:38;;;;;;;;;;;10.00;81.40;;;;;;5117179;27;19918;-68
2023/04/05 11:44:04;;;;;;;;;;;10.00;80.60;;;;;;5117576;27;19908;-68
2023/04/05 11:46:32;;;;;;;;;;;10.00;80.50;;;;;;5111128;28;19994;-67
2023/04/05 11:48:58;;;;;;;;;;;10.00;81.70;;;;;;5111387;28;19918;-67
2023/04/05 11:51:25;;;;;;;;;;;10.10;81.40;;;;;;5111478;28;19912;-68
2023/04/05 11:53:50;;;;;;;;;;;10.10;82.60;;;;;;5110664;28;20372;-67
2023/04/05 11:56:16;;;;;;;;;;;10.20;82.60;;;;;;5109859;28;19950;-67
2023/04/05 11:58:41;;;;;;;;;;;10.30;81.50;;;;;;5110482;28;19927;-67
2023/04/05 12:01:07;;;;;;;;;;;10.40;82.10;;;;;;5110711;28;19918;-67
2023/04/05 12:03:34;;;;;;;;;;;10.40;81.60;;;;;;5107594;28;20606;-67
2023/04/05 12:06:01;;;;;;;;;;;10.40;82.00;;;;;;5109358;28;20275;-67
2023/04/05 12:08:37;;;;;;;;;;;10.50;82.60;;;;;;5100756;27;19926;-67
2023/04/05 12:11:05;;;;;;;;;;;10.50;82.50;;;;;;5105682;28;20010;-67
2023/04/05 12:13:31;;;;;;;;;;;10.60;82.60;;;;;;5107935;28;19961;-67
2023/04/05 12:15:58;;;;;;;;;;;10.70;83.50;;;;;;5125234;27;20004;-67
2023/04/05 12:18:24;;;;;;;;;;;10.70;83.60;;;;;;5110371;28;19915;-67
2023/04/05 12:20:49;;;;;;;;;;;10.80;83.20;;;;;;5118908;27;19917;-67
2023/04/05 12:23:16;;;;;;;;;;;10.80;83.30;;;;;;5108872;28;20347;-67
2023/04/05 12:25:45;;;;;;;;;;;10.80;83.50;;;;;;5090230;28;19912;-67
2023/04/05 12:28:10;;;;;;;;;;;10.90;82.90;;;;;;5114646;27;19923;-67
2023/04/05 12:30:46;;;;;;;;;;;10.90;83.10;;;;;;5128244;27;19920;-67
2023/04/05 12:33:12;;;;;;;;;;;10.90;82.70;;;;;;5121524;27;19911;-67
2023/04/05 12:35:37;;;;;;;;;;;10.90;82.70;;;;;;5130316;27;20271;-68
2023/04/05 12:38:04;;;;;;;;;;;10.90;84.20;;;;;;5113201;27;19912;-68
2023/04/05 12:40:31;;;;;;;;;;;11.00;84.20;;;;;;5109396;28;20616;-67
2023/04/05 12:43:04;;;;;;;;;;;11.00;84.00;;;;;;5108967;28;19916;-68
2023/04/05 12:45:38;;;;;;;;;;;11.10;83.90;;;;;;5110341;28;19912;-68
2023/04/05 12:48:07;;;;;;;;;;;11.10;84.00;;;;;;5110131;27;19916;-68
2023/04/05 12:50:32;;;;;;;;;;;11.10;84.00;;;;;;5110255;27;19940;-68
2023/04/05 12:52:58;;;;;;;;;;;11.10;83.10;;;;;;5109697;28;19919;-67
2023/04/05 12:55:25;;;;;;;;;;;11.20;82.90;;;;;;5109895;28;19908;-67
2023/04/05 12:57:51;;;;;;;;;;;11.20;83.40;;;;;;5109514;28;19919;-68
2023/04/05 13:00:17;;;;;;;;;;;11.20;83.80;;;;;;5110265;28;19934;-67
2023/04/05 13:02:42;;;;;;;;;;;11.30;83.80;;;;;;5102427;28;19916;-68
2023/04/05 13:05:08;;;;;;;;;;;11.30;83.90;;;;;;5109988;28;20057;-67
2023/04/05 13:07:33;;;;;;;;;;;11.30;84.00;;;;;;5109734;28;19923;-68
2023/04/05 13:09:59;;;;;;;;;;;11.30;83.80;;;;;;5109816;27;19919;-68
2023/04/05 13:12:24;;;;;;;;;;;11.40;84.50;;;;;;5109381;28;20340;-67
2023/04/05 13:14:50;;;;;;;;;;;11.40;84.30;;;;;;5109659;28;20002;-68
2023/04/05 13:17:15;;;;;;;;;;;11.40;84.30;;;;;;5109236;28;19911;-68
2023/04/05 13:19:41;;;;;;;;;;;11.50;84.80;;;;;;5109483;28;20007;-68
2023/04/05 13:22:06;;;;;;;;;;;11.60;84.80;;;;;;5107062;28;19918;-67
2023/04/05 13:24:32;;;;;;;;;;;11.60;84.80;;;;;;5088370;28;19912;-67
2023/04/05 13:26:59;;;;;;;;;;;11.60;84.80;;;;;;5086378;28;20414;-67
2023/04/05 13:29:25;;;;;;;;;;;11.60;84.70;;;;;;5089030;28;20001;-67
2023/04/05 13:31:50;;;;;;;;;;;11.70;84.00;;;;;;5096686;28;19912;-68
2023/04/05 13:34:16;;;;;;;;;;;11.70;84.90;;;;;;5103183;28;19919;-67
2023/04/05 13:36:41;;;;;;;;;;;11.80;84.80;;;;;;5108977;28;19912;-68
2023/04/05 13:39:07;;;;;;;;;;;11.80;85.00;;;;;;5108397;28;19932;-67
2023/04/05 13:41:32;;;;;;;;;;;11.90;85.30;;;;;;5108486;28;19935;-67
2023/04/05 13:43:58;;;;;;;;;;;11.90;85.20;;;;;;5108580;28;19916;-67
2023/04/05 13:46:23;;;;;;;;;;;11.90;85.00;;;;;;5108887;28;20617;-68
2023/04/05 13:48:49;;;;;;;;;;;11.90;86.30;;;;;;5108870;28;19958;-67
2023/04/05 13:51:15;;;;;;;;;;;12.00;86.00;;;;;;5108978;28;19951;-68
2023/04/05 13:53:40;;;;;;;;;;;12.00;86.30;;;;;;5093587;28;20360;-68
2023/04/05 13:56:06;;;;;;;;;;;12.10;87.00;;;;;;5093820;28;20373;-68
2023/04/05 13:58:31;;;;;;;;;;;12.10;85.70;;;;;;5108464;28;19914;-68
2023/04/05 14:00:57;;;;;;;;;;;12.10;87.60;;;;;;5108371;28;20292;-68
2023/04/05 14:03:23;;;;;;;;;;;12.20;87.30;;;;;;5108402;28;19912;-68
2023/04/05 14:05:48;;;;;;;;;;;12.20;86.90;;;;;;5108851;28;19923;-68
2023/04/05 14:08:14;;;;;;;;;;;12.20;86.60;;;;;;5108637;28;19916;-68
2023/04/05 14:10:40;;;;;;;;;;;12.20;86.80;;;;;;5108575;28;19959;-67
2023/04/05 14:13:05;;;;;;;;;;;12.20;87.10;;;;;;5107951;28;19911;-68
2023/04/05 14:15:31;;;;;;;;;;;12.20;86.80;;;;;;5107752;28;19980;-67
2023/04/05 14:17:57;;;;;;;;;;;12.30;87.20;;;;;;5107885;28;19912;-68
2023/04/05 14:20:22;;;;;;;;;;;12.30;87.30;;;;;;5108437;28;19920;-67
2023/04/05 14:22:48;;;;;;;;;;;12.30;87.30;;;;;;5107945;28;19937;-68
2023/04/05 14:25:13;;;;;;;;;;;12.40;87.40;;;;;;5108603;28;20026;-68
2023/04/05 14:27:41;;;;;;;;;;;12.40;87.30;;;;;;5108019;28;19919;-67